createdAt,value
2023-02-28T00:02:17.974Z,100.00
2023-02-28T00:04:44.963Z,100.00
2023-02-28T00:07:11.436Z,100.00
2023-02-28T00:09:38.113Z,100.00
2023-02-28T00:12:04.990Z,100.00
2023-02-28T00:14:31.867Z,100.00
2023-02-28T00:16:58.448Z,100.00
2023-02-28T00:19:24.907Z,100.00
2023-02-28T00:21:51.660Z,100.00
2023-02-28T00:24:18.167Z,100.00
2023-02-28T00:26:44.838Z,100.00
2023-02-28T00:29:11.356Z,100.00
2023-02-28T00:31:38.042Z,100.00
2023-02-28T00:34:04.487Z,100.00
2023-02-28T00:36:30.817Z,100.00
2023-02-28T00:38:57.372Z,100.00
2023-02-28T00:41:24.110Z,100.00
2023-02-28T00:43:50.582Z,100.00
2023-02-28T00:46:17.365Z,100.00
2023-02-28T00:48:43.782Z,100.00
2023-02-28T00:51:10.538Z,100.00
2023-02-28T00:53:36.858Z,100.00
2023-02-28T00:56:04.699Z,100.00
2023-02-28T00:58:31.329Z,100.00
2023-02-28T01:00:57.983Z,100.00
2023-02-28T01:03:24.434Z,100.00
2023-02-28T01:05:51.693Z,100.00
2023-02-28T01:08:18.269Z,100.00
2023-02-28T01:10:44.854Z,100.00
2023-02-28T01:13:12.396Z,100.00
2023-02-28T01:15:43.082Z,100.00
2023-02-28T01:18:09.599Z,100.00
2023-02-28T01:20:38.440Z,100.00
2023-02-28T01:23:04.811Z,100.00
2023-02-28T01:25:31.298Z,100.00
2023-02-28T01:27:57.792Z,100.00
2023-02-28T01:30:24.552Z,100.00
2023-02-28T01:32:50.985Z,100.00
2023-02-28T01:35:17.534Z,100.00
2023-02-28T01:37:44.022Z,100.00
2023-02-28T01:40:11.181Z,100.00
2023-02-28T01:42:37.690Z,100.00
2023-02-28T01:45:21.665Z,100.00
2023-02-28T01:47:51.201Z,100.00
2023-02-28T01:50:21.570Z,100.00
2023-02-28T01:52:49.501Z,100.00
2023-02-28T01:55:17.699Z,100.00
2023-02-28T01:57:49.789Z,100.00
2023-02-28T02:00:20.165Z,100.00
2023-02-28T02:02:50.604Z,100.00
2023-02-28T02:05:23.129Z,100.00
2023-02-28T02:07:53.730Z,100.00
2023-02-28T02:10:25.781Z,100.00
2023-02-28T02:12:55.261Z,100.00
2023-02-28T02:15:52.779Z,100.00
2023-02-28T02:18:44.331Z,100.00
2023-02-28T02:21:25.759Z,100.00
2023-02-28T02:23:54.894Z,100.00
2023-02-28T02:26:49.755Z,100.00
2023-02-28T02:29:37.684Z,100.00
2023-02-28T02:32:38.886Z,100.00
2023-02-28T02:35:18.823Z,100.00
2023-02-28T02:38:00.123Z,100.00
2023-02-28T02:40:34.078Z,100.00
2023-02-28T02:43:39.389Z,100.00
2023-02-28T02:46:17.174Z,100.00
2023-02-28T02:48:46.844Z,100.00
2023-02-28T02:51:20.135Z,100.00
2023-02-28T02:54:00.941Z,100.00
2023-02-28T02:56:30.435Z,100.00
2023-02-28T02:59:03.218Z,100.00
2023-02-28T03:01:32.832Z,100.00
2023-02-28T03:04:03.974Z,100.00
2023-02-28T03:06:30.698Z,100.00
2023-02-28T03:08:57.172Z,100.00
2023-02-28T03:11:24.363Z,100.00
2023-02-28T03:14:14.929Z,100.00
2023-02-28T03:16:52.382Z,100.00
2023-02-28T03:19:28.119Z,100.00
2023-02-28T03:22:20.779Z,100.00
2023-02-28T03:25:01.385Z,100.00
2023-02-28T03:27:31.426Z,100.00
2023-02-28T03:30:04.321Z,100.00
2023-02-28T03:32:37.756Z,100.00
2023-02-28T03:35:13.142Z,100.00
2023-02-28T03:37:43.340Z,100.00
2023-02-28T03:40:15.747Z,100.00
2023-02-28T03:42:46.993Z,100.00
2023-02-28T03:45:16.757Z,100.00
2023-02-28T03:47:55.548Z,100.00
2023-02-28T03:50:35.974Z,100.00
2023-02-28T03:53:08.446Z,100.00
2023-02-28T03:55:42.840Z,100.00
2023-02-28T03:58:22.182Z,100.00
2023-02-28T04:00:56.395Z,100.00
2023-02-28T04:03:23.087Z,100.00
2023-02-28T04:05:55.854Z,100.00
2023-02-28T04:08:23.292Z,100.00
2023-02-28T04:10:57.385Z,100.00
2023-02-28T04:13:24.145Z,100.00
2023-02-28T04:15:50.819Z,100.00
2023-02-28T04:18:17.273Z,100.00
2023-02-28T04:20:43.758Z,100.00
2023-02-28T04:23:10.253Z,100.00
2023-02-28T04:25:36.685Z,100.00
2023-02-28T04:28:03.381Z,100.00
2023-02-28T04:30:31.260Z,100.00
2023-02-28T04:32:57.653Z,100.00
2023-02-28T04:35:24.170Z,100.00
2023-02-28T04:37:50.835Z,100.00
2023-02-28T04:40:17.635Z,100.00
2023-02-28T04:42:44.167Z,100.00
2023-02-28T04:45:11.020Z,100.00
2023-02-28T04:47:37.856Z,100.00
2023-02-28T04:50:04.700Z,100.00
2023-02-28T04:52:31.205Z,100.00
2023-02-28T04:54:57.550Z,100.00
2023-02-28T04:57:23.947Z,100.00
2023-02-28T04:59:50.389Z,100.00
2023-02-28T05:02:17.170Z,100.00
2023-02-28T05:04:43.693Z,100.00
2023-02-28T05:07:10.190Z,100.00
2023-02-28T05:09:36.571Z,100.00
2023-02-28T05:12:03.307Z,100.00
2023-02-28T05:14:29.995Z,100.00
2023-02-28T05:16:56.391Z,100.00
2023-02-28T05:19:22.791Z,100.00
2023-02-28T05:21:52.862Z,100.00
2023-02-28T05:24:19.934Z,100.00
2023-02-28T05:26:46.489Z,100.00
2023-02-28T05:29:13.194Z,100.00
2023-02-28T05:31:39.751Z,100.00
2023-02-28T05:34:12.251Z,100.00
2023-02-28T05:36:39.412Z,100.00
2023-02-28T05:39:09.410Z,100.00
2023-02-28T05:41:36.251Z,100.00
2023-02-28T05:44:02.938Z,100.00
2023-02-28T05:46:29.397Z,100.00
2023-02-28T05:48:59.097Z,100.00
2023-02-28T05:51:25.527Z,100.00
2023-02-28T05:53:52.021Z,100.00
2023-02-28T05:56:18.908Z,100.00
2023-02-28T05:58:45.334Z,100.00
2023-02-28T06:01:22.683Z,100.00
2023-02-28T06:03:49.253Z,100.00
2023-02-28T06:06:15.933Z,100.00
2023-02-28T06:08:42.438Z,100.00
2023-02-28T06:11:08.879Z,100.00
2023-02-28T06:13:35.286Z,100.00
2023-02-28T06:16:02.310Z,100.00
2023-02-28T06:18:28.907Z,100.00
2023-02-28T06:20:56.406Z,100.00
2023-02-28T06:23:23.433Z,100.00
2023-02-28T06:25:49.791Z,100.00
2023-02-28T06:28:16.832Z,100.00
2023-02-28T06:30:46.384Z,100.00
2023-02-28T06:33:13.312Z,100.00
2023-02-28T06:35:40.116Z,100.00
2023-02-28T06:38:06.904Z,100.00
2023-02-28T06:40:33.642Z,100.00
2023-02-28T06:43:00.021Z,100.00
2023-02-28T06:45:26.716Z,100.00
2023-02-28T06:47:53.672Z,100.00
2023-02-28T06:50:20.402Z,100.00
2023-02-28T06:52:47.960Z,100.00
2023-02-28T06:55:15.052Z,100.00
2023-02-28T06:57:43.206Z,100.00
2023-02-28T07:00:10.821Z,100.00
2023-02-28T07:02:37.779Z,100.00
2023-02-28T07:05:05.519Z,100.00
2023-02-28T07:07:31.971Z,100.00
2023-02-28T07:09:58.397Z,100.00
2023-02-28T07:12:27.922Z,100.00
2023-02-28T07:14:54.582Z,100.00
2023-02-28T07:17:21.791Z,100.00
2023-02-28T07:19:48.458Z,100.00
2023-02-28T07:22:18.197Z,100.00
2023-02-28T07:24:44.737Z,100.00
2023-02-28T07:27:15.033Z,100.00
2023-02-28T07:29:41.617Z,100.00
2023-02-28T07:32:08.144Z,100.00
2023-02-28T07:34:34.852Z,100.00
2023-02-28T07:37:02.426Z,100.00
2023-02-28T07:39:29.247Z,100.00
2023-02-28T07:41:55.789Z,100.00
2023-02-28T07:44:22.335Z,100.00
2023-02-28T07:46:48.866Z,100.00
2023-02-28T07:49:15.467Z,100.00
2023-02-28T07:51:43.064Z,100.00
2023-02-28T07:54:11.347Z,100.00
2023-02-28T07:56:37.876Z,100.00
2023-02-28T07:59:04.327Z,100.00
2023-02-28T08:01:31.353Z,100.00
2023-02-28T08:03:58.072Z,100.00
2023-02-28T08:06:26.431Z,100.00
2023-02-28T08:08:54.177Z,100.00
2023-02-28T08:11:20.917Z,100.00
2023-02-28T08:13:47.326Z,100.00
2023-02-28T08:16:15.351Z,100.00
2023-02-28T08:18:42.055Z,100.00
2023-02-28T08:21:10.848Z,100.00
2023-02-28T08:23:38.194Z,100.00
2023-02-28T08:26:05.690Z,100.00
2023-02-28T08:28:33.931Z,100.00
2023-02-28T08:31:01.465Z,100.00
2023-02-28T08:33:28.735Z,100.00
2023-02-28T08:35:56.762Z,100.00
2023-02-28T08:38:24.285Z,100.00
2023-02-28T08:40:51.067Z,100.00
2023-02-28T08:43:17.644Z,100.00
2023-02-28T08:45:44.110Z,100.00
2023-02-28T08:48:10.615Z,100.00
2023-02-28T08:50:37.164Z,100.00
2023-02-28T08:53:03.540Z,100.00
2023-02-28T08:55:29.904Z,100.00
2023-02-28T08:57:56.367Z,100.00
2023-02-28T09:00:23.549Z,100.00
2023-02-28T09:02:53.101Z,100.00
2023-02-28T09:05:19.769Z,100.00
2023-02-28T09:07:46.601Z,100.00
2023-02-28T09:10:14.237Z,100.00
2023-02-28T09:12:41.098Z,100.00
2023-02-28T09:15:14.800Z,100.00
2023-02-28T09:17:41.725Z,100.00
2023-02-28T09:20:10.047Z,100.00
2023-02-28T09:22:50.346Z,100.00
2023-02-28T09:25:17.386Z,100.00
2023-02-28T09:27:45.938Z,100.00
2023-02-28T09:30:16.748Z,99.93
2023-02-28T09:32:43.475Z,98.31
2023-02-28T09:35:10.206Z,98.42
2023-02-28T09:37:36.582Z,97.36
2023-02-28T09:40:04.305Z,98.46
2023-02-28T09:42:38.697Z,98.37
2023-02-28T09:45:28.881Z,95.35
2023-02-28T09:47:59.818Z,97.80
2023-02-28T09:50:36.279Z,98.70
2023-02-28T09:53:27.409Z,98.15
2023-02-28T09:55:57.822Z,97.24
2023-02-28T09:58:39.610Z,98.11
2023-02-28T10:01:32.713Z,95.67
2023-02-28T10:04:09.633Z,95.97
2023-02-28T10:06:46.079Z,94.22
2023-02-28T10:09:20.035Z,97.01
2023-02-28T10:11:48.328Z,97.04
2023-02-28T10:14:19.037Z,97.56
2023-02-28T10:16:56.462Z,94.58
2023-02-28T10:19:34.337Z,93.05
2023-02-28T10:22:12.237Z,90.00
2023-02-28T10:24:41.494Z,89.29
2023-02-28T10:27:19.314Z,93.27
2023-02-28T10:29:49.165Z,93.75
2023-02-28T10:32:19.051Z,92.51
2023-02-28T10:34:51.732Z,93.12
2023-02-28T10:37:23.644Z,92.78
2023-02-28T10:39:50.066Z,89.87
2023-02-28T10:42:26.017Z,92.01
2023-02-28T10:45:19.164Z,91.85
2023-02-28T10:47:58.712Z,92.43
2023-02-28T10:50:51.385Z,91.54
2023-02-28T10:53:17.782Z,92.29
2023-02-28T10:55:44.817Z,91.35
2023-02-28T10:58:26.151Z,89.75
2023-02-28T11:00:53.897Z,89.08
2023-02-28T11:03:36.585Z,87.73
2023-02-28T11:06:09.685Z,86.61
2023-02-28T11:08:45.683Z,86.15
2023-02-28T11:11:12.912Z,85.55
2023-02-28T11:13:39.422Z,82.76
2023-02-28T11:16:08.923Z,83.73
2023-02-28T11:18:43.395Z,80.92
2023-02-28T11:21:15.988Z,80.60
2023-02-28T11:23:43.480Z,77.28
2023-02-28T11:26:10.165Z,77.38
2023-02-28T11:31:22.823Z,75.95
2023-02-28T11:34:27.166Z,67.25
2023-02-28T11:36:58.368Z,66.31
2023-02-28T11:39:39.417Z,70.39
2023-02-28T11:42:17.397Z,67.86
2023-02-28T11:45:28.069Z,69.35
2023-02-28T11:48:15.395Z,66.34
2023-02-28T11:51:18.686Z,65.81
2023-02-28T11:53:56.765Z,64.80
2023-02-28T11:56:35.047Z,64.27
2023-02-28T11:59:13.435Z,60.69
2023-02-28T12:01:55.931Z,54.63
2023-02-28T12:04:52.347Z,54.54
2023-02-28T12:07:52.946Z,55.37
2023-02-28T12:10:38.525Z,55.73
2023-02-28T12:13:23.186Z,57.41
2023-02-28T12:16:01.971Z,58.33
2023-02-28T12:19:00.204Z,58.59
2023-02-28T12:21:50.820Z,60.55
2023-02-28T12:24:34.532Z,59.25
2023-02-28T12:27:07.926Z,59.10
2023-02-28T12:29:59.841Z,59.85
2023-02-28T12:32:40.325Z,57.31
2023-02-28T12:35:10.237Z,59.02
2023-02-28T12:37:45.588Z,57.64
2023-02-28T12:40:17.013Z,58.98
2023-02-28T12:42:48.369Z,56.14
2023-02-28T12:45:20.891Z,55.89
2023-02-28T12:47:53.491Z,54.39
2023-02-28T12:50:21.161Z,55.42
2023-02-28T12:53:22.118Z,55.48
2023-02-28T12:56:19.730Z,56.89
2023-02-28T12:58:52.988Z,55.90
2023-02-28T13:01:30.159Z,56.89
2023-02-28T13:04:26.996Z,57.05
2023-02-28T13:07:20.275Z,56.53
2023-02-28T13:09:55.251Z,57.42
2023-02-28T13:15:32.123Z,55.40
2023-02-28T13:18:00.643Z,57.05
2023-02-28T13:20:41.402Z,57.00
2023-02-28T13:23:46.659Z,53.51
2023-02-28T13:26:14.656Z,52.56
2023-02-28T13:28:56.427Z,53.22
2023-02-28T13:31:22.948Z,54.15
2023-02-28T13:33:55.456Z,52.05
2023-02-28T13:36:21.872Z,50.58
2023-02-28T13:38:55.970Z,51.99
2023-02-28T13:41:32.031Z,51.41
2023-02-28T13:44:07.072Z,53.19
2023-02-28T13:46:46.086Z,50.61
2023-02-28T13:49:25.260Z,49.98
2023-02-28T13:52:08.126Z,51.31
2023-02-28T13:54:57.040Z,49.08
2023-02-28T13:57:29.530Z,48.93
2023-02-28T14:00:25.723Z,49.87
2023-02-28T14:03:38.683Z,50.66
2023-02-28T14:06:23.038Z,52.54
2023-02-28T14:09:31.103Z,51.15
2023-02-28T14:12:37.034Z,50.47
2023-02-28T14:15:05.506Z,51.09
2023-02-28T14:17:33.385Z,50.29
2023-02-28T14:20:30.152Z,51.53
2023-02-28T14:23:21.775Z,51.20
2023-02-28T14:26:20.401Z,52.13
2023-02-28T14:29:01.923Z,53.22
2023-02-28T14:35:37.151Z,54.64
2023-02-28T14:38:07.504Z,52.60
2023-02-28T14:40:39.638Z,53.03
2023-02-28T14:43:19.462Z,52.98
2023-02-28T14:45:53.047Z,53.57
2023-02-28T14:48:20.846Z,55.78
2023-02-28T14:50:59.502Z,55.74
2023-02-28T14:53:41.326Z,55.57
2023-02-28T14:56:47.543Z,56.33
2023-02-28T14:59:29.555Z,57.98
2023-02-28T15:02:14.783Z,57.73
2023-02-28T15:04:43.258Z,58.71
2023-02-28T15:07:29.005Z,59.46
2023-02-28T15:10:22.639Z,59.30
2023-02-28T15:13:01.448Z,59.46
2023-02-28T15:15:51.639Z,57.65
2023-02-28T15:18:48.103Z,57.79
2023-02-28T15:21:21.460Z,58.65
2023-02-28T15:23:54.322Z,59.77
2023-02-28T15:26:23.984Z,60.24
2023-02-28T15:29:22.601Z,59.92
2023-02-28T15:31:57.381Z,62.08
2023-02-28T15:34:43.295Z,62.83
2023-02-28T15:40:50.247Z,63.99
2023-02-28T15:43:29.661Z,65.87
2023-02-28T15:46:12.808Z,65.33
2023-02-28T15:48:52.733Z,65.83
2023-02-28T15:51:31.496Z,68.42
2023-02-28T15:54:01.158Z,64.92
2023-02-28T15:56:33.263Z,64.79
2023-02-28T15:59:12.270Z,66.81
2023-02-28T16:07:15.600Z,69.52
2023-02-28T16:09:45.565Z,69.86
2023-02-28T16:15:07.786Z,70.83
2023-02-28T16:17:36.626Z,72.09
2023-02-28T16:20:17.927Z,72.28
2023-02-28T16:22:44.876Z,73.84
2023-02-28T16:25:17.372Z,75.60
2023-02-28T16:27:49.799Z,76.98
2023-02-28T16:30:22.463Z,77.43
2023-02-28T16:32:51.062Z,77.10
2023-02-28T16:35:18.385Z,78.90
2023-02-28T16:37:45.629Z,77.64
2023-02-28T16:40:18.302Z,79.62
2023-02-28T16:42:47.135Z,80.21
2023-02-28T16:45:29.667Z,79.74
2023-02-28T16:48:00.514Z,82.35
2023-02-28T16:50:31.262Z,82.05
2023-02-28T16:53:00.001Z,84.12
2023-02-28T16:55:27.361Z,84.53
2023-02-28T17:12:16.689Z,89.50
2023-02-28T17:14:43.892Z,90.38
2023-02-28T17:17:23.314Z,90.88
2023-02-28T17:19:50.990Z,92.00
2023-02-28T17:22:17.613Z,90.90
2023-02-28T17:24:45.918Z,92.10
2023-02-28T17:27:15.964Z,93.26
2023-02-28T17:29:42.493Z,93.35
2023-02-28T17:32:17.892Z,93.90
2023-02-28T17:34:46.290Z,94.95
2023-02-28T17:37:12.776Z,93.56
2023-02-28T17:39:40.040Z,93.91
2023-02-28T17:42:06.634Z,93.35
2023-02-28T17:44:33.083Z,94.79
2023-02-28T17:47:00.040Z,95.84
2023-02-28T17:49:26.620Z,96.95
2023-02-28T17:51:53.023Z,95.44
2023-02-28T17:54:21.277Z,95.67
2023-02-28T17:57:01.671Z,95.93
2023-02-28T17:59:29.810Z,96.65
2023-02-28T18:04:49.872Z,97.42
2023-02-28T18:07:27.404Z,96.56
2023-02-28T18:09:53.905Z,96.61
2023-02-28T18:12:26.311Z,98.21
2023-02-28T18:14:56.548Z,97.08
2023-02-28T18:17:33.925Z,96.48
2023-02-28T18:20:04.046Z,97.74
2023-02-28T18:22:44.197Z,98.59
2023-02-28T18:25:14.771Z,99.30
2023-02-28T18:27:48.339Z,99.56
2023-02-28T18:30:15.105Z,100.00
2023-02-28T18:32:42.473Z,100.00
2023-02-28T18:35:10.325Z,100.00
2023-02-28T18:37:37.038Z,100.00
2023-02-28T18:40:04.317Z,100.00
2023-02-28T18:42:30.707Z,100.00
2023-02-28T18:44:57.505Z,100.00
2023-02-28T18:47:23.994Z,100.00
2023-02-28T18:49:50.350Z,100.00
2023-02-28T18:52:16.887Z,100.00
2023-02-28T18:54:43.391Z,100.00
2023-02-28T18:57:09.897Z,100.00
2023-02-28T18:59:36.762Z,100.00
2023-02-28T19:02:03.452Z,100.00
2023-02-28T19:04:30.027Z,100.00
2023-02-28T19:06:56.424Z,100.00
2023-02-28T19:09:23.183Z,100.00
2023-02-28T19:11:50.018Z,100.00
2023-02-28T19:14:16.501Z,100.00
2023-02-28T19:16:43.023Z,100.00
2023-02-28T19:19:12.437Z,100.00
2023-02-28T19:21:39.126Z,100.00
2023-02-28T19:24:05.745Z,100.00
2023-02-28T19:26:32.279Z,100.00
2023-02-28T19:29:12.110Z,100.00
2023-02-28T19:31:38.755Z,100.00
2023-02-28T19:34:05.926Z,100.00
2023-02-28T19:39:16.490Z,100.00
2023-02-28T19:41:46.887Z,100.00
2023-02-28T19:44:15.640Z,100.00
2023-02-28T19:46:45.706Z,100.00
2023-02-28T19:49:12.176Z,100.00
2023-02-28T19:51:38.882Z,100.00
2023-02-28T19:54:08.207Z,100.00
2023-02-28T19:56:34.756Z,100.00
2023-02-28T19:59:02.584Z,100.00
2023-02-28T20:01:28.987Z,100.00
2023-02-28T20:03:55.535Z,100.00
2023-02-28T20:06:22.588Z,100.00
2023-02-28T20:08:54.978Z,100.00
2023-02-28T20:11:22.630Z,100.00
2023-02-28T20:13:49.142Z,100.00
2023-02-28T20:16:17.147Z,100.00
2023-02-28T20:18:45.069Z,100.00
2023-02-28T20:21:42.542Z,100.00
2023-02-28T20:24:22.750Z,100.00
2023-02-28T20:26:53.354Z,100.00
2023-02-28T20:29:19.866Z,100.00
2023-02-28T20:31:47.046Z,100.00
2023-02-28T20:34:13.906Z,100.00
2023-02-28T20:36:40.679Z,100.00
2023-02-28T20:39:08.607Z,100.00
2023-02-28T20:41:38.034Z,100.00
2023-02-28T20:44:05.377Z,100.00
2023-02-28T20:46:36.198Z,100.00
2023-02-28T20:49:29.802Z,100.00
2023-02-28T20:51:58.174Z,100.00
2023-02-28T20:54:45.272Z,100.00
2023-02-28T20:57:23.029Z,100.00
2023-02-28T20:59:50.931Z,100.00
2023-02-28T21:02:19.164Z,100.00
2023-02-28T21:04:45.886Z,100.00
2023-02-28T21:07:12.587Z,100.00
2023-02-28T21:09:39.365Z,100.00
2023-02-28T21:12:07.031Z,100.00
2023-02-28T21:14:33.563Z,100.00
2023-02-28T21:17:00.310Z,100.00
2023-02-28T21:19:26.820Z,100.00
2023-02-28T21:21:54.894Z,100.00
2023-02-28T21:24:21.494Z,100.00
2023-02-28T21:26:48.638Z,100.00
2023-02-28T21:29:15.760Z,100.00
2023-02-28T21:31:42.407Z,100.00
2023-02-28T21:34:11.041Z,100.00
2023-02-28T21:36:40.531Z,100.00
2023-02-28T21:39:12.195Z,100.00
2023-02-28T21:41:38.877Z,100.00
2023-02-28T21:44:05.752Z,100.00
2023-02-28T21:46:32.604Z,100.00
2023-02-28T21:48:59.535Z,100.00
2023-02-28T21:51:31.488Z,100.00
2023-02-28T21:54:01.689Z,100.00
2023-02-28T21:56:31.209Z,100.00
2023-02-28T21:58:58.198Z,100.00
2023-02-28T22:01:24.935Z,100.00
2023-02-28T22:03:52.892Z,100.00
2023-02-28T22:06:22.338Z,100.00
2023-02-28T22:08:52.419Z,100.00
2023-02-28T22:11:20.071Z,100.00
2023-02-28T22:13:47.395Z,100.00
2023-02-28T22:16:17.012Z,100.00
2023-02-28T22:18:43.606Z,100.00
2023-02-28T22:21:11.633Z,100.00
2023-02-28T22:23:39.408Z,100.00
2023-02-28T22:26:08.493Z,100.00
2023-02-28T22:28:36.091Z,100.00
2023-02-28T22:31:14.556Z,100.00
2023-02-28T22:33:41.224Z,100.00
2023-02-28T22:36:08.334Z,100.00
2023-02-28T22:38:35.243Z,100.00
2023-02-28T22:41:03.044Z,100.00
2023-02-28T22:43:29.507Z,100.00
2023-02-28T22:45:56.171Z,100.00
2023-02-28T22:48:22.744Z,100.00
2023-02-28T22:50:49.868Z,100.00
2023-02-28T22:53:16.448Z,100.00
2023-02-28T22:55:42.876Z,100.00
2023-02-28T22:58:09.448Z,100.00
2023-02-28T23:00:35.965Z,100.00
2023-02-28T23:03:02.486Z,100.00
2023-02-28T23:05:30.704Z,100.00
2023-02-28T23:07:58.559Z,100.00
2023-02-28T23:10:26.312Z,100.00
2023-02-28T23:12:52.869Z,100.00
2023-02-28T23:15:21.400Z,100.00
2023-02-28T23:17:49.190Z,100.00
2023-02-28T23:20:19.057Z,100.00
2023-02-28T23:22:45.676Z,100.00
2023-02-28T23:25:15.589Z,100.00
2023-02-28T23:27:44.119Z,100.00
2023-02-28T23:30:11.533Z,100.00
2023-02-28T23:32:39.265Z,100.00
2023-02-28T23:35:07.559Z,100.00
2023-02-28T23:37:35.727Z,100.00
2023-02-28T23:40:02.666Z,100.00
2023-02-28T23:42:29.115Z,100.00
2023-02-28T23:44:55.628Z,100.00
2023-02-28T23:47:22.872Z,100.00
2023-02-28T23:49:49.319Z,100.00
2023-02-28T23:52:16.255Z,100.00
2023-02-28T23:54:42.952Z,100.00
2023-02-28T23:57:09.747Z,100.00
2023-02-28T23:59:36.795Z,100.00
